createdAt,value
2022-09-26T00:00:46.537Z,67.20
2022-09-26T00:06:07.359Z,66.90
2022-09-26T00:11:14.849Z,66.60
2022-09-26T00:16:18.708Z,66.80
2022-09-26T00:21:23.829Z,66.70
2022-09-26T00:26:29.343Z,66.80
2022-09-26T00:31:34.819Z,66.90
2022-09-26T00:36:39.088Z,66.70
2022-09-26T00:41:43.234Z,66.60
2022-09-26T00:46:48.787Z,69.00
2022-09-26T00:52:15.857Z,70.00
2022-09-26T00:57:24.650Z,69.70
2022-09-26T01:02:29.843Z,69.20
2022-09-26T01:07:34.844Z,68.90
2022-09-26T01:12:38.547Z,69.10
2022-09-26T01:17:46.063Z,69.30
2022-09-26T01:23:09.894Z,68.50
2022-09-26T01:29:10.893Z,68.60
2022-09-26T01:34:24.824Z,68.80
2022-09-26T01:39:32.208Z,68.40
2022-09-26T01:44:48.495Z,68.30
2022-09-26T01:50:02.545Z,67.80
2022-09-26T01:55:15.131Z,68.30
2022-09-26T02:00:20.094Z,68.10
2022-09-26T02:05:33.331Z,68.30
2022-09-26T02:11:00.865Z,68.20
2022-09-26T02:16:11.396Z,68.20
2022-09-26T02:21:19.582Z,68.40
2022-09-26T02:26:23.791Z,68.00
2022-09-26T02:31:36.732Z,68.00
2022-09-26T02:36:40.813Z,68.00
2022-09-26T02:41:57.735Z,67.90
2022-09-26T02:47:04.429Z,67.90
2022-09-26T02:53:08.236Z,67.90
2022-09-26T02:58:47.767Z,68.00
2022-09-26T03:03:58.232Z,68.00
2022-09-26T03:09:03.928Z,68.00
2022-09-26T03:14:11.635Z,68.00
2022-09-26T03:19:27.073Z,68.20
2022-09-26T03:24:30.749Z,67.60
2022-09-26T03:29:34.684Z,68.40
2022-09-26T03:34:41.377Z,68.00
2022-09-26T03:39:45.509Z,68.00
2022-09-26T03:45:04.381Z,68.40
2022-09-26T03:50:28.166Z,68.00
2022-09-26T03:55:31.686Z,68.10
2022-09-26T04:00:35.764Z,68.00
2022-09-26T04:05:39.848Z,68.10
2022-09-26T04:10:43.472Z,68.10
2022-09-26T04:15:55.684Z,68.10
2022-09-26T04:21:09.737Z,68.10
2022-09-26T04:26:22.849Z,68.10
2022-09-26T04:31:28.093Z,68.40
2022-09-26T04:36:38.839Z,68.10
2022-09-26T04:41:42.358Z,68.10
2022-09-26T04:46:45.984Z,68.10
2022-09-26T04:51:50.550Z,67.60
2022-09-26T04:56:54.049Z,68.00
2022-09-26T05:01:57.903Z,68.00
2022-09-26T05:07:16.567Z,68.00
2022-09-26T05:12:22.005Z,68.00
2022-09-26T05:17:30.137Z,68.00
2022-09-26T05:22:36.033Z,68.00
2022-09-26T05:27:40.857Z,68.30
2022-09-26T05:32:49.602Z,68.00
2022-09-26T05:38:00.876Z,67.90
2022-09-26T05:43:05.131Z,67.90
2022-09-26T05:48:09.790Z,68.40
2022-09-26T05:53:14.530Z,68.00
2022-09-26T05:58:21.571Z,68.00
2022-09-26T06:03:45.616Z,68.10
2022-09-26T06:08:53.034Z,68.30
2022-09-26T06:14:05.761Z,68.60
2022-09-26T06:19:09.369Z,68.40
2022-09-26T06:24:13.515Z,68.80
2022-09-26T06:29:18.980Z,68.70
2022-09-26T06:34:26.503Z,68.90
2022-09-26T06:39:45.262Z,69.00
2022-09-26T06:44:48.784Z,69.00
2022-09-26T06:50:02.376Z,68.90
2022-09-26T06:55:11.276Z,68.40
2022-09-26T07:00:16.229Z,68.70
2022-09-26T07:05:39.373Z,68.40
2022-09-26T07:10:43.738Z,68.40
2022-09-26T07:15:58.725Z,68.60
2022-09-26T07:21:14.111Z,68.50
2022-09-26T07:26:26.227Z,68.00
2022-09-26T07:31:30.630Z,68.30
2022-09-26T07:36:43.824Z,68.30
2022-09-26T07:41:47.750Z,68.30
2022-09-26T07:47:10.197Z,68.20
2022-09-26T07:52:14.921Z,68.60
2022-09-26T07:57:37.021Z,69.10
2022-09-26T08:03:05.109Z,69.90
2022-09-26T08:08:11.042Z,70.10
2022-09-26T08:13:43.626Z,69.60
2022-09-26T08:18:59.329Z,69.80
2022-09-26T08:24:03.257Z,69.50
2022-09-26T08:29:25.301Z,69.60
2022-09-26T08:34:35.194Z,69.70
2022-09-26T08:40:05.188Z,69.60
2022-09-26T08:46:43.739Z,69.50
2022-09-26T08:51:59.989Z,69.40
2022-09-26T08:57:14.261Z,69.30
2022-09-26T09:02:44.760Z,69.60
2022-09-26T09:07:54.979Z,69.80
2022-09-26T09:13:24.291Z,69.60
2022-09-26T09:19:06.682Z,69.60
2022-09-26T09:25:03.921Z,69.60
2022-09-26T09:30:46.024Z,69.70
2022-09-26T09:36:44.708Z,69.60
2022-09-26T09:42:32.022Z,69.60
2022-09-26T09:47:39.345Z,69.80
2022-09-26T09:53:06.490Z,69.30
2022-09-26T09:58:41.737Z,69.40
2022-09-26T10:04:04.860Z,69.50
2022-09-26T10:09:35.651Z,69.70
2022-09-26T10:15:26.599Z,69.30
2022-09-26T10:20:57.486Z,69.00
2022-09-26T10:26:04.185Z,68.90
2022-09-26T10:31:21.557Z,68.90
2022-09-26T10:36:43.766Z,69.30
2022-09-26T10:41:50.739Z,68.90
2022-09-26T10:46:58.951Z,68.90
2022-09-26T10:52:38.449Z,69.00
2022-09-26T10:57:52.422Z,68.90
2022-09-26T11:02:58.066Z,69.00
2022-09-26T11:08:07.004Z,69.30
2022-09-26T11:13:55.971Z,69.90
2022-09-26T11:19:09.342Z,70.60
2022-09-26T11:24:15.098Z,70.30
2022-09-26T11:29:28.947Z,70.40
2022-09-26T11:34:43.000Z,70.20
2022-09-26T11:40:11.751Z,70.20
2022-09-26T11:45:47.198Z,70.40
2022-09-26T11:51:16.965Z,70.50
2022-09-26T11:56:36.551Z,70.30
2022-09-26T12:01:57.469Z,70.70
2022-09-26T12:07:17.860Z,70.40
2022-09-26T12:13:12.392Z,70.70
2022-09-26T12:18:44.538Z,70.60
2022-09-26T12:24:06.950Z,70.50
2022-09-26T12:29:50.066Z,70.60
2022-09-26T12:35:36.611Z,70.90
2022-09-26T12:40:51.425Z,70.40
2022-09-26T12:46:21.181Z,70.50
2022-09-26T12:51:30.675Z,70.40
2022-09-26T12:56:43.193Z,70.60
2022-09-26T13:02:22.513Z,70.50
2022-09-26T13:07:42.663Z,70.40
2022-09-26T13:13:25.659Z,70.00
2022-09-26T13:18:43.600Z,70.30
2022-09-26T13:23:58.381Z,70.20
2022-09-26T13:29:21.042Z,70.90
2022-09-26T13:34:49.953Z,70.20
2022-09-26T13:40:08.283Z,70.40
2022-09-26T13:45:40.518Z,70.20
2022-09-26T13:51:06.419Z,70.00
2022-09-26T13:56:38.118Z,70.00
2022-09-26T14:02:28.631Z,70.00
2022-09-26T14:07:56.846Z,70.20
2022-09-26T14:13:06.853Z,70.20
2022-09-26T14:18:45.237Z,70.40
2022-09-26T14:24:10.335Z,71.20
2022-09-26T14:29:29.822Z,71.60
2022-09-26T14:35:00.399Z,71.20
2022-09-26T14:40:11.027Z,72.00
2022-09-26T14:45:23.317Z,72.50
2022-09-26T14:50:45.299Z,72.40
2022-09-26T14:56:00.286Z,72.70
2022-09-26T15:01:21.492Z,72.40
2022-09-26T15:06:40.329Z,72.80
2022-09-26T15:11:48.611Z,72.40
2022-09-26T15:16:55.491Z,72.30
2022-09-26T15:22:24.014Z,72.20
2022-09-26T15:27:29.997Z,72.10
2022-09-26T15:32:34.058Z,72.10
2022-09-26T15:37:38.140Z,72.00
2022-09-26T15:43:02.292Z,71.90
2022-09-26T15:48:21.008Z,72.30
2022-09-26T15:53:42.037Z,72.80
2022-09-26T15:59:17.645Z,72.40
2022-09-26T16:04:22.632Z,72.40
2022-09-26T16:10:00.174Z,72.70
2022-09-26T16:15:17.200Z,72.50
2022-09-26T16:20:27.234Z,72.70
2022-09-26T16:25:43.739Z,72.80
2022-09-26T16:31:08.725Z,72.80
2022-09-26T16:36:20.868Z,72.80
2022-09-26T16:47:33.543Z,71.90
2022-09-26T16:52:40.202Z,72.40
2022-09-26T16:57:58.607Z,72.60
2022-09-26T17:03:03.446Z,72.40
2022-09-26T17:08:11.225Z,71.90
2022-09-26T17:13:22.855Z,72.00
2022-09-26T17:18:32.811Z,71.80
2022-09-26T17:23:40.872Z,71.50
2022-09-26T17:28:47.223Z,71.40
2022-09-26T17:33:55.847Z,71.10
2022-09-26T17:39:01.325Z,71.30
2022-09-26T17:44:04.949Z,71.10
2022-09-26T17:49:19.532Z,70.80
2022-09-26T17:54:32.883Z,71.10
2022-09-26T17:59:36.783Z,70.90
2022-09-26T18:04:41.658Z,71.60
2022-09-26T18:09:45.363Z,72.50
2022-09-26T18:15:17.742Z,72.20
2022-09-26T18:20:37.534Z,73.30
2022-09-26T18:25:44.023Z,72.90
2022-09-26T18:30:59.609Z,73.00
2022-09-26T18:36:04.233Z,73.30
2022-09-26T18:41:11.884Z,74.20
2022-09-26T18:46:24.740Z,73.80
2022-09-26T18:51:32.596Z,73.70
2022-09-26T18:56:58.425Z,73.70
2022-09-26T19:02:20.054Z,73.60
2022-09-26T19:07:25.857Z,73.20
2022-09-26T19:12:33.479Z,73.10
2022-09-26T19:17:49.700Z,73.10
2022-09-26T19:23:15.525Z,73.00
2022-09-26T19:28:29.584Z,72.50
2022-09-26T19:33:33.764Z,72.70
2022-09-26T19:38:46.109Z,74.60
2022-09-26T19:44:10.557Z,74.80
2022-09-26T19:49:39.560Z,74.60
2022-09-26T19:54:54.476Z,74.30
2022-09-26T20:00:07.820Z,74.40
2022-09-26T20:05:28.808Z,74.40
2022-09-26T20:10:37.157Z,74.00
2022-09-26T20:15:45.793Z,74.10
2022-09-26T20:20:54.796Z,73.80
2022-09-26T20:25:59.238Z,74.00
2022-09-26T20:31:04.479Z,73.20
2022-09-26T20:36:27.785Z,73.30
2022-09-26T20:41:36.203Z,73.30
2022-09-26T20:46:47.572Z,76.30
2022-09-26T20:52:03.452Z,76.10
2022-09-26T20:57:11.723Z,76.40
2022-09-26T21:02:32.714Z,75.90
2022-09-26T21:07:37.605Z,75.50
2022-09-26T21:12:45.949Z,75.10
2022-09-26T21:17:53.292Z,74.80
2022-09-26T21:23:04.691Z,76.00
2022-09-26T21:28:28.367Z,75.90
2022-09-26T21:33:32.768Z,75.60
2022-09-26T21:38:36.312Z,75.50
2022-09-26T21:43:50.358Z,75.80
2022-09-26T21:48:54.857Z,77.70
2022-09-26T21:54:07.420Z,78.30
2022-09-26T21:59:21.298Z,78.20
2022-09-26T22:04:46.617Z,77.30
2022-09-26T22:09:50.437Z,77.10
2022-09-26T22:14:54.045Z,77.00
2022-09-26T22:19:58.894Z,76.70
2022-09-26T22:25:05.177Z,76.80
2022-09-26T22:30:10.908Z,76.70
2022-09-26T22:35:16.214Z,76.50
2022-09-26T22:40:25.204Z,76.20
2022-09-26T22:45:28.781Z,76.00
2022-09-26T22:50:32.405Z,75.80
2022-09-26T22:55:37.048Z,75.50
2022-09-26T23:00:41.193Z,75.40
2022-09-26T23:05:49.427Z,75.30
2022-09-26T23:10:56.175Z,75.20
2022-09-26T23:16:11.398Z,75.30
2022-09-26T23:21:18.188Z,74.90
2022-09-26T23:26:26.942Z,74.80
2022-09-26T23:31:30.554Z,74.70
2022-09-26T23:36:35.710Z,74.90
2022-09-26T23:41:39.135Z,74.60
2022-09-26T23:46:42.753Z,73.90
2022-09-26T23:51:47.914Z,74.10
2022-09-26T23:56:51.368Z,74.00
